Thurman, Indiana
Current Conditions -  °F | °C
As of 12:54 AM on Saturday 20 Dec 2014 (Local Time) from KFWA Reporting Station
Broken Clouds Broken Clouds  
Wind Chill: 24°   Ceiling: 23000
Heat Index: 24°   Visibility: 10mi
Dew Point: 21°   Wind: 0mph
Humidity: 88%   Direction: NA
Pressure: 30.26"   Gusts: NA
Location:  41.0925°N, 84.9712°W
Report Text: KFWA 200554Z 00000KT 10SM FEW032 SCT150 BKN230 M04/M06 A3026 RMK AO2 SLP259 T10441061 11011 21044 56005
Loading
Personal Weather Stations






























Interactive Weather Map New forecast layout! Learn more

10-Day Weather Forecast

Advertisements
Track Severe Weather on mobile